メインページ
METAR-TAF:

METAR-TAF

空港 :

シンガポール, シンガポール

シンガポール・チャンギ国際空港

緯度: 01-22N, 経度: 103-59E, 海抜: 5m

現時点の気象観測

当レポートは16分前の12:00(UTC)に作成
の風 3kt、西から東/北東の間で変化する
気温 26°C
湿度 84%
気圧 1010 hPa
視程10km以上
高度1300ftの雲はほとんどない
高度27000ftの千切れ雲あり

METAR: WSSS 241200Z 01003KT 270V060 9999 FEW013 BKN270 26/23 Q1010 NOSIG

時間: 20:16 (12:16 UTC)

予報

当レポートは1時間16分前の11:00(UTC)に作成
予報は24日の 12時(UTC)から 25日の 18時(UTC)まで有効
北東の風 10kt
視程10km以上
高度1800ftの雲はほとんどない, 積乱雲.
高度2000ftの雲は散在している
25日の 05時(UTC)から 25日の 09時(UTC)まで一時的に
視程: 4000m
高度1200ftの雲はほとんどない, 積乱雲.
高度1500ftの千切れ雲あり
にわか雨

TAF: WSSS 241100Z 2412/2518 04010KT 9999 FEW018CB SCT020 TEMPO 2505/2509 4000 SHRA FEW012CB BKN015

4,000以上の空港の気象観測と天気予報(METAR報とTAF報)

利用可能な観測所は地図上に黄色い丸と赤い丸で示す。

丸の上にカーソルを重ねると観測所名を参照できる。

次にクリックすると気象観測と天気予報を参照できる。

マップの切り替え:黒色「×」印の緑ボタンをクリックして拡大、「-」印の緑ボタンをクリックして縮小、緑色の三角印をクリックして隣りの地図に切り替え


METAR-TAF: